Etusivu
METAR-TAF:

METAR-TAF

Lentoasemat :

Palermo, Italia

Leveyspiiri: 38-11N, Pituuspiiri: 013-06E, korkeus merenpinnasta: 21 m

Tämänhetkinen sää

Tämä raportti tehtiin 1 tunti ja 19 minuuttia sitten, kello 18.50 UTC
Tuuli 3 kn idästä
Lämpötila 12°C
Kosteus 76%
Ilmanpaine 1025 hPa
Näkyvyys 10 km tai enemmän
ei pilviä alle 1500 m:ssä eikä cumulonimbus-pilviä

METAR: LICJ 211850Z 09003KT CAVOK 12/08 Q1025

Aika: 21:09 (20:09 UTC)

Sääennuste

Tämä raportti tehtiin 3 tuntia ja 9 minuuttia sitten, kello 17.00 UTC
Ennuste voimassa 21. päivästä klo 18 UTC - 22. päivään klo 18 UTC
Tuuli 5 kn eri suunnista
Näkyvyys 10 km tai enemmän
ei pilviä alle 1500 m:ssä eikä cumulonimbus-pilviä
Tulossa
22. päivästä klo 09 UTC - 22. päivään klo 11 UTC
Tuuli 12 kn pohjoisesta/koillisesta

TAF: LICJ 211700Z 2118/2218 VRB05KT CAVOK BECMG 2209/2211 03012KT

Säähavainnot ja -ennusteet yli 4000 lentoasemalta (METAR- ja TAF-raportit).

Käytössä olevat sääasemat on merkitty karttaan keltaisilla ja punaisilla pisteillä.

Aseta hiiri pisteen päälle nähdäksesi sääaseman nimen.

Klikkaa sitten nähdäksesi säähavainnot ja -ennusteet.

Kartan vaihtaminen: klikkaa mustalla rastilla varustettuja vihreitä pisteitä, niin voit zoomata sisään; viivalla varustettua vihreää pistettä, niin voit zoomata ulos tai vihreitä nuolia, niin pääset viereisille kartoille.


METAR-TAF: